Kezdőlap
METAR-TAF:

METAR-TAF

Repülőterek :

Stanton megye, Kansas, Amerikai Egyesült Államok

földrajzi szélesség: 37-35-07N, földrajzi hosszúság: 101-43-56W, magasság: 1013 m

Jelenlegi meteorológiai megfigyelések

A jelentés 24 perccel ezelõtt készült, 19:15 UTC
Dél-délnyugati szél 14 kt széllökések: 18 kt
Hőmérséklet 33°C
Páratartalom 28%
Légköri nyomás 1010 hPa
Látótávolság: 16.1 km
Szórványos felhőzet 9000 lábon

METAR: KJHN 151915Z AUTO 21014G18KT 10SM SCT090 33/12 A2983 RMK AO2 T03270121

Idő: 14:39 (19:39 UTC)


TAF: hiányzik

Meteorológiai megfigyelések és előrejelzések több, mint 4000 repülőtéren (METAR és TAF jelentéseket).

A térképen piros és sárga pontok jelzik az elérhető meteorológiai állomásokat.

Mozgassa az egeret a pont fölött, hogy megjelenjen az állomás neve.

Azután kattintson az időjárási megfigyelések és előrejelzések megtekintéséhez.

A térkép megváltoztatása: kattintson a fekete keresztel jelölt zöld gombra ráközelítéshez, a vonallal jelölt zöld gombra távolításhoz, vagy a zöld nyilakra a szomszédos térképek eléréséhez.


METAR-TAF: